Time;durP1;ratioP1;P1;durP2;ratioP2;P2;SDS_P1;SDS_P2;PMS_P1;PMS_P2;Temp;Humidity;BMP_temperature;BMP_pressure;BME280_temperature;BME280_humidity;BME280_pressure;Samples;Min_cycle;Max_cycle;Signal;HPM_P1;HPM_P2
2021/07/22 00:00:38;;;;;;;7.50;2.67;;;;;;;15.75;82.00;99096.16;1656519;85;21109;-74
2021/07/22 00:03:05;;;;;;;6.35;2.37;;;;;;;15.73;82.45;99100.67;1669450;85;21053;-75
2021/07/22 00:05:31;;;;;;;6.72;2.15;;;;;;;15.71;82.49;99097.47;1670992;85;21505;-74
2021/07/22 00:08:01;;;;;;;8.73;2.20;;;;;;;15.70;82.33;99095.86;1660529;85;21397;-74
2021/07/22 00:10:27;;;;;;;5.62;2.37;;;;;;;15.68;82.49;99098.19;1676763;85;21456;-74
2021/07/22 00:12:55;;;;;;;8.05;2.83;;;;;;;15.67;82.25;99099.34;1653188;85;20953;-73
2021/07/22 00:15:23;;;;;;;5.85;2.47;;;;;;;15.66;82.22;99089.44;1661405;85;21012;-74
2021/07/22 00:17:50;;;;;;;3.35;2.20;;;;;;;15.65;82.59;99104.44;1664350;85;21952;-73
2021/07/22 00:20:16;;;;;;;6.50;2.52;;;;;;;15.62;82.93;99097.44;1660248;85;20906;-73
2021/07/22 00:22:43;;;;;;;5.17;3.00;;;;;;;15.59;83.08;99100.38;1614509;87;21090;-73
2021/07/22 00:25:10;;;;;;;8.68;2.65;;;;;;;15.58;82.86;99102.91;1610570;87;21041;-74
2021/07/22 00:27:37;;;;;;;12.33;3.00;;;;;;;15.58;82.93;99104.30;1610011;87;20964;-74
2021/07/22 00:30:04;;;;;;;4.60;2.45;;;;;;;15.58;83.03;99102.11;1634519;87;21713;-74
2021/07/22 00:32:30;;;;;;;9.20;2.92;;;;;;;15.58;83.07;99104.88;1634892;86;21014;-73
2021/07/22 00:34:57;;;;;;;4.20;2.42;;;;;;;15.57;83.28;99103.27;1672107;84;21025;-73
2021/07/22 00:37:24;;;;;;;6.55;2.77;;;;;;;15.56;83.03;99105.79;1675643;85;22114;-73
2021/07/22 00:39:51;;;;;;;4.55;2.77;;;;;;;15.53;82.96;99101.20;1689346;85;20921;-73
2021/07/22 00:42:17;;;;;;;9.05;2.80;;;;;;;15.51;83.35;99106.87;1681763;85;21117;-72
2021/07/22 00:44:44;;;;;;;6.00;2.85;;;;;;;15.50;83.44;99113.56;1676181;85;21678;-73
2021/07/22 00:47:11;;;;;;;21.68;2.90;;;;;;;15.47;83.29;99104.59;1670342;85;21057;-73
2021/07/22 00:49:38;;;;;;;10.10;3.15;;;;;;;15.46;83.24;99109.33;1668503;85;22024;-73
2021/07/22 00:52:06;;;;;;;10.20;2.60;;;;;;;15.48;83.21;99110.34;1645314;85;20915;-72
2021/07/22 00:54:33;;;;;;;9.35;2.77;;;;;;;15.45;83.15;99109.69;1670735;85;21152;-73
2021/07/22 00:57:00;;;;;;;10.38;2.83;;;;;;;15.43;83.39;99111.42;1678112;85;20954;-73
2021/07/22 00:59:26;;;;;;;4.80;2.62;;;;;;;15.41;83.54;99117.09;1670680;85;21498;-73
2021/07/22 01:01:54;;;;;;;6.75;2.52;;;;;;;15.40;83.50;99119.63;1689169;85;21552;-74
2021/07/22 01:04:20;;;;;;;9.93;2.98;;;;;;;15.38;84.03;99120.58;1674437;85;20926;-73
2021/07/22 01:06:48;;;;;;;8.83;2.67;;;;;;;15.33;84.08;99127.75;1681516;85;21137;-74
2021/07/22 01:09:16;;;;;;;6.67;2.58;;;;;;;15.31;84.37;99130.08;1666962;85;20946;-74
2021/07/22 01:11:45;;;;;;;12.43;3.52;;;;;;;15.25;84.35;99128.16;1672234;85;21103;-74
2021/07/22 01:14:12;;;;;;;6.70;2.62;;;;;;;15.24;84.59;99118.83;1666603;85;20987;-74
2021/07/22 01:16:39;;;;;;;3.98;2.92;;;;;;;15.22;84.71;99125.30;1671464;85;21446;-72
2021/07/22 01:19:07;;;;;;;9.43;3.12;;;;;;;15.22;84.93;99130.83;1670706;85;21158;-75
2021/07/22 01:21:34;;;;;;;6.53;2.95;;;;;;;15.22;85.10;99134.40;1667372;85;21474;-74
2021/07/22 01:24:03;;;;;;;6.25;2.90;;;;;;;15.21;84.79;99131.41;1661263;84;20951;-74
2021/07/22 01:26:48;;;;;;;4.62;2.83;;;;;;;15.20;84.72;99134.75;1661054;86;20945;-74
2021/07/22 01:29:16;;;;;;;11.05;2.92;;;;;;;15.18;84.84;99131.54;1662992;85;20883;-74
2021/07/22 01:31:43;;;;;;;12.25;3.42;;;;;;;15.20;84.92;99137.52;1671435;86;21180;-74
2021/07/22 01:34:10;;;;;;;8.93;3.15;;;;;;;15.20;84.55;99135.33;1662896;85;21013;-74
2021/07/22 01:36:37;;;;;;;6.80;3.30;;;;;;;15.20;84.60;99135.33;1667961;85;20985;-74
2021/07/22 01:39:04;;;;;;;7.03;2.85;;;;;;;15.20;84.43;99138.09;1671117;85;20994;-74
2021/07/22 01:41:33;;;;;;;10.15;3.90;;;;;;;15.19;84.54;99140.06;1666209;85;21022;-73
2021/07/22 01:44:00;;;;;;;5.72;2.90;;;;;;;15.18;84.43;99138.45;1612351;86;21524;-73
2021/07/22 01:46:27;;;;;;;9.83;3.05;;;;;;;15.15;84.69;99128.11;1662493;85;20879;-74
2021/07/22 01:48:54;;;;;;;6.45;2.77;;;;;;;15.09;84.79;99133.67;1669306;85;21068;-76
2021/07/22 01:51:21;;;;;;;9.33;2.98;;;;;;;15.08;85.00;99136.22;1662513;85;21033;-76
2021/07/22 01:53:52;;;;;;;5.90;3.10;;;;;;;15.07;85.25;99138.75;1661992;85;21041;-76
2021/07/22 01:56:19;;;;;;;5.17;3.25;;;;;;;15.05;85.28;99141.07;1661831;85;21014;-76
2021/07/22 01:58:46;;;;;;;7.62;3.10;;;;;;;15.04;85.36;99140.84;1667945;85;21086;-76
2021/07/22 02:01:13;;;;;;;7.80;2.92;;;;;;;15.02;85.32;99138.24;1672638;85;20966;-76
2021/07/22 02:03:40;;;;;;;7.22;3.25;;;;;;;15.01;85.16;99147.70;1672693;85;21541;-76
2021/07/22 02:06:08;;;;;;;5.95;2.70;;;;;;;15.00;85.37;99153.80;1660682;85;21101;-75
2021/07/22 02:08:36;;;;;;;4.30;2.90;;;;;;;14.98;85.25;99154.73;1686912;83;21132;-75
2021/07/22 02:11:04;;;;;;;8.13;3.00;;;;;;;14.95;85.35;99158.20;1683511;84;21433;-76
2021/07/22 02:13:32;;;;;;;14.38;4.10;;;;;;;14.95;85.48;99154.64;1680558;83;20962;-76
2021/07/22 02:15:59;;;;;;;16.00;3.40;;;;;;;14.93;85.45;99157.75;1681586;85;20941;-77
2021/07/22 02:18:33;;;;;;;7.58;2.90;;;;;;;14.91;85.11;99161.45;1679423;85;21461;-76
2021/07/22 02:21:10;;;;;;;8.85;3.08;;;;;;;14.89;85.02;99162.37;1675870;84;21126;-76
2021/07/22 02:23:39;;;;;;;11.05;3.20;;;;;;;14.85;85.39;99163.67;1684670;83;20989;-76
2021/07/22 02:26:10;;;;;;;9.50;4.12;;;;;;;14.83;85.59;99174.27;1687835;83;21039;-76
2021/07/22 02:28:36;;;;;;;4.90;3.33;;;;;;;14.81;85.93;99174.39;1687681;83;21696;-75
2021/07/22 02:31:03;;;;;;;7.17;3.00;;;;;;;14.79;85.93;99169.22;1689864;83;20929;-74
2021/07/22 02:33:30;;;;;;;5.55;3.00;;;;;;;14.78;86.16;99176.48;1681891;84;21103;-73
2021/07/22 02:35:57;;;;;;;5.30;3.40;;;;;;;14.75;86.20;99176.61;1687022;83;20943;-73
2021/07/22 02:38:29;;;;;;;11.78;3.45;;;;;;;14.71;86.36;99175.70;1689267;83;21619;-74
2021/07/22 02:40:55;;;;;;;9.23;3.60;;;;;;;14.70;86.54;99177.44;1684445;83;21045;-73
2021/07/22 02:43:24;;;;;;;8.95;3.15;;;;;;;14.69;86.49;99178.59;1700318;83;21028;-73
2021/07/22 02:45:51;;;;;;;7.05;2.92;;;;;;;14.67;86.39;99178.14;1686971;83;21135;-73
2021/07/22 02:48:18;;;;;;;7.17;4.20;;;;;;;14.66;86.53;99184.82;1680669;83;21068;-73
2021/07/22 02:50:46;;;;;;;8.30;3.47;;;;;;;14.64;86.57;99185.75;1699957;83;21558;-74
2021/07/22 02:53:13;;;;;;;7.05;3.45;;;;;;;14.63;86.72;99183.56;1690025;83;21006;-74
2021/07/22 02:55:42;;;;;;;8.78;3.58;;;;;;;14.63;86.77;99187.70;1669890;84;21070;-73
2021/07/22 02:58:09;;;;;;;7.30;3.90;;;;;;;14.62;86.37;99184.72;1695808;83;21134;-74
2021/07/22 03:00:37;;;;;;;10.38;4.65;;;;;;;14.64;86.43;99196.80;1687123;83;20941;-75
2021/07/22 03:03:04;;;;;;;10.10;3.70;;;;;;;14.63;86.55;99191.05;1687595;83;21783;-75
2021/07/22 03:05:31;;;;;;;5.55;3.22;;;;;;;14.63;86.21;99196.58;1684260;85;20957;-74
2021/07/22 03:07:59;;;;;;;7.22;4.30;;;;;;;14.62;86.43;99197.15;1680906;85;21531;-74
2021/07/22 03:10:26;;;;;;;9.70;4.03;;;;;;;14.63;86.26;99202.09;1676365;84;21130;-75
2021/07/22 03:12:54;;;;;;;10.00;3.72;;;;;;;14.65;86.24;99201.17;1689084;85;20941;-75
2021/07/22 03:15:24;;;;;;;8.03;4.00;;;;;;;14.64;86.42;99205.89;1686730;85;20942;-74
2021/07/22 03:17:50;;;;;;;10.28;3.83;;;;;;;14.68;85.95;99199.09;1670634;85;21512;-75
2021/07/22 03:20:17;;;;;;;6.10;3.42;;;;;;;14.70;86.03;99198.16;1675262;85;20992;-74
2021/07/22 03:22:48;;;;;;;12.35;4.00;;;;;;;14.74;86.22;99204.02;1689938;84;21567;-75
2021/07/22 03:25:26;;;;;;;8.15;3.15;;;;;;;14.76;85.82;99203.08;1674908;84;21783;-75
2021/07/22 03:27:59;;;;;;;10.82;3.77;;;;;;;14.81;85.42;99206.17;1682010;83;21571;-74
2021/07/22 03:30:27;;;;;;;4.85;2.98;;;;;;;14.83;84.96;99203.86;1693188;83;20968;-73
2021/07/22 03:33:13;;;;;;;6.95;3.75;;;;;;;14.87;84.71;99213.06;1694952;83;21075;-73
2021/07/22 03:35:41;;;;;;;7.83;3.58;;;;;;;14.91;85.21;99211.20;1695965;83;21746;-74
2021/07/22 03:38:09;;;;;;;8.03;3.15;;;;;;;14.96;85.12;99215.09;1696486;83;21036;-74
2021/07/22 03:40:37;;;;;;;13.20;3.25;;;;;;;15.01;84.87;99213.45;1716573;83;20909;-75
2021/07/22 03:43:04;;;;;;;5.67;3.35;;;;;;;15.06;84.69;99217.31;1705774;83;21608;-74
2021/07/22 03:45:32;;;;;;;9.93;2.83;;;;;;;15.11;84.29;99207.38;1694861;83;21547;-74
2021/07/22 03:48:00;;;;;;;6.65;2.95;;;;;;;15.18;83.50;99220.02;1696878;83;21532;-74
2021/07/22 03:50:27;;;;;;;6.87;2.77;;;;;;;15.23;83.25;99223.68;1694714;83;21528;-74
2021/07/22 03:52:56;;;;;;;5.08;2.83;;;;;;;15.29;82.78;99225.03;1695043;83;20965;-74
2021/07/22 03:55:26;;;;;;;5.03;3.00;;;;;;;15.36;82.55;99222.45;1666831;84;21002;-74
2021/07/22 03:57:57;;;;;;;6.37;2.55;;;;;;;15.42;82.16;99223.80;1621659;84;21018;-73
2021/07/22 04:00:24;;;;;;;6.75;3.47;;;;;;;15.47;81.08;99222.16;1689239;85;21129;-73
2021/07/22 04:03:01;;;;;;;5.85;2.90;;;;;;;15.51;81.20;99229.97;1689231;84;20985;-73
2021/07/22 04:05:30;;;;;;;6.35;3.00;;;;;;;15.59;81.05;99240.67;1683921;85;20954;-74
2021/07/22 04:07:58;;;;;;;4.22;2.90;;;;;;;15.64;81.12;99238.41;1678663;85;20919;-74
2021/07/22 04:10:41;;;;;;;5.45;3.15;;;;;;;15.68;79.82;99237.92;1609495;88;21023;-74
2021/07/22 04:13:26;;;;;;;7.33;2.83;;;;;;;15.74;79.73;99242.03;1677756;84;21546;-75
2021/07/22 04:16:02;;;;;;;12.50;2.55;;;;;;;15.81;77.82;99228.37;1684258;84;21151;-73
2021/07/22 04:18:37;;;;;;;8.80;2.92;;;;;;;15.88;78.03;99241.58;1680671;84;21070;-73
2021/07/22 04:21:05;;;;;;;7.75;2.42;;;;;;;15.94;77.46;99246.27;1671203;85;20983;-73
2021/07/22 04:23:36;;;;;;;8.85;2.77;;;;;;;15.99;76.20;99246.80;1631052;84;21425;-73
2021/07/22 04:26:16;;;;;;;6.58;2.58;;;;;;;16.04;75.76;99249.29;1678823;84;21137;-73
2021/07/22 04:28:54;;;;;;;11.88;2.77;;;;;;;16.10;76.27;99252.01;1679292;85;20898;-75
2021/07/22 04:31:22;;;;;;;3.58;2.50;;;;;;;16.24;76.91;99250.70;1662701;85;21045;-74
2021/07/22 04:33:51;;;;;;;8.20;2.50;;;;;;;16.37;76.50;99250.81;1669236;85;21013;-74
2021/07/22 04:36:29;;;;;;;7.62;2.90;;;;;;;16.47;75.90;99250.25;1626316;86;20980;-73
2021/07/22 04:39:14;;;;;;;4.50;2.67;;;;;;;16.59;75.23;99250.71;1635235;85;21064;-75
2021/07/22 04:41:52;;;;;;;9.10;2.77;;;;;;;16.65;74.73;99252.06;1556924;90;21519;-73
2021/07/22 04:44:30;;;;;;;5.30;2.70;;;;;;;16.67;74.61;99245.58;1681733;84;20970;-73
2021/07/22 04:47:09;;;;;;;4.92;2.22;;;;;;;16.70;74.24;99249.00;1695104;84;21064;-74
2021/07/22 04:49:35;;;;;;;5.72;2.17;;;;;;;16.74;73.73;99241.57;1674705;84;20911;-74
2021/07/22 04:52:12;;;;;;;12.55;2.72;;;;;;;16.79;74.01;99238.48;1667977;85;21538;-73
2021/07/22 04:54:41;;;;;;;10.13;2.80;;;;;;;16.84;73.06;99237.60;1667550;85;21135;-73
2021/07/22 04:57:08;;;;;;;8.40;2.77;;;;;;;16.87;72.43;99243.00;1669499;84;20883;-73
2021/07/22 04:59:37;;;;;;;5.45;2.77;;;;;;;16.87;72.93;99234.69;1682722;85;20926;-73
2021/07/22 05:02:04;;;;;;;8.03;2.47;;;;;;;16.88;73.37;99238.26;1688238;85;20940;-76
2021/07/22 05:04:31;;;;;;;12.15;2.52;;;;;;;16.90;72.86;99242.27;1679336;83;21164;-73
2021/07/22 05:07:00;;;;;;;4.53;2.37;;;;;;;16.93;71.66;99241.55;1696073;84;21008;-74
2021/07/22 05:09:32;;;;;;;6.30;2.40;;;;;;;16.97;72.31;99246.58;1681968;84;21004;-75
2021/07/22 05:12:08;;;;;;;7.50;3.00;;;;;;;17.05;73.21;99245.55;1674559;83;21480;-74
2021/07/22 05:14:39;;;;;;;9.35;3.60;;;;;;;17.13;70.72;99241.75;1694428;83;21062;-72
2021/07/22 05:17:13;;;;;;;5.30;2.72;;;;;;;17.21;71.89;99242.70;1687107;83;21089;-73
2021/07/22 05:19:57;;;;;;;13.53;2.75;;;;;;;17.34;71.62;99241.91;1695144;83;20870;-76
2021/07/22 05:22:28;;;;;;;8.15;2.52;;;;;;;17.46;71.00;99240.36;1692753;84;20905;-75
2021/07/22 05:25:09;;;;;;;5.65;2.80;;;;;;;17.57;71.45;99244.13;1694724;83;21422;-75
2021/07/22 05:27:44;;;;;;;6.08;2.83;;;;;;;17.63;69.47;99250.98;1695852;83;20957;-74
2021/07/22 05:30:13;;;;;;;5.87;2.85;;;;;;;17.68;69.85;99245.15;1696376;83;21135;-70
2021/07/22 05:32:47;;;;;;;8.30;2.70;;;;;;;17.80;70.31;99249.13;1693278;84;21009;-71
2021/07/22 05:35:33;;;;;;;4.92;2.75;;;;;;;17.92;68.30;99243.14;1659528;83;21048;-70
2021/07/22 05:38:18;;;;;;;7.33;3.02;;;;;;;18.03;69.00;99251.05;1695398;83;22199;-70
2021/07/22 05:40:46;;;;;;;10.70;3.47;;;;;;;18.17;68.19;99245.73;1695618;84;20953;-72
2021/07/22 05:43:13;;;;;;;6.30;3.02;;;;;;;18.34;68.79;99254.12;1695236;83;21955;-76
2021/07/22 05:45:41;;;;;;;8.33;2.80;;;;;;;18.49;67.65;99251.14;1695417;83;20953;-78
2021/07/22 05:48:07;;;;;;;8.90;3.10;;;;;;;18.58;67.12;99251.45;1697082;83;20977;-79
2021/07/22 05:50:34;;;;;;;9.58;2.60;;;;;;;18.60;67.62;99260.22;1695538;84;21021;-77
2021/07/22 05:53:00;;;;;;;8.80;2.60;;;;;;;18.62;67.67;99255.11;1695742;84;21420;-77
2021/07/22 05:55:28;;;;;;;5.17;2.52;;;;;;;18.71;67.79;99252.86;1693879;83;21542;-76
2021/07/22 05:57:54;;;;;;;12.70;2.65;;;;;;;18.85;66.96;99265.56;1695537;84;20945;-73
2021/07/22 06:00:20;;;;;;;5.85;2.20;;;;;;;18.95;66.95;99264.89;1696023;82;20957;-76
2021/07/22 06:02:47;;;;;;;5.65;2.17;;;;;;;19.00;66.10;99268.73;1692841;83;20957;-71
2021/07/22 06:05:14;;;;;;;5.87;2.27;;;;;;;19.06;65.26;99271.36;1684895;85;21065;-72
2021/07/22 06:07:40;;;;;;;9.63;2.15;;;;;;;19.16;66.45;99263.52;1671709;85;21794;-74
2021/07/22 06:10:08;;;;;;;4.37;2.08;;;;;;;19.26;66.45;99267.02;1687195;83;20903;-74
2021/07/22 06:12:34;;;;;;;4.20;2.20;;;;;;;19.28;66.68;99266.05;1669438;85;21025;-75
2021/07/22 06:15:00;;;;;;;4.60;2.25;;;;;;;19.28;65.46;99275.80;1667413;85;21156;-74
2021/07/22 06:17:27;;;;;;;7.45;2.10;;;;;;;19.20;66.13;99273.52;1659218;86;21580;-70
2021/07/22 06:19:53;;;;;;;10.93;3.00;;;;;;;19.20;64.78;99272.72;1668175;85;21114;-76
2021/07/22 06:22:20;;;;;;;10.28;2.58;;;;;;;19.13;64.07;99267.87;1672509;85;20902;-72
2021/07/22 06:24:47;;;;;;;3.83;2.05;;;;;;;19.07;65.52;99266.02;1672913;85;21487;-72
2021/07/22 06:27:13;;;;;;;3.02;2.10;;;;;;;19.13;65.96;99266.48;1672920;85;20950;-71
2021/07/22 06:29:39;;;;;;;11.08;2.20;;;;;;;19.25;66.92;99264.03;1665990;85;20978;-73
2021/07/22 06:32:07;;;;;;;5.97;2.40;;;;;;;19.40;66.21;99264.40;1663591;85;21138;-70
2021/07/22 06:34:33;;;;;;;6.42;2.30;;;;;;;19.53;66.04;99265.77;1665173;85;20907;-70
2021/07/22 06:37:01;;;;;;;6.47;2.33;;;;;;;19.73;66.59;99266.33;1669311;85;20950;-73
2021/07/22 06:39:32;;;;;;;5.28;2.35;;;;;;;19.90;65.46;99262.11;1672670;85;20962;-72
2021/07/22 06:41:59;;;;;;;11.83;2.70;;;;;;;20.00;63.05;99259.41;1673034;85;20998;-71
2021/07/22 06:44:28;;;;;;;9.00;2.83;;;;;;;20.06;63.99;99255.67;1672484;85;21076;-72
2021/07/22 06:46:55;;;;;;;6.10;2.75;;;;;;;20.10;64.35;99256.50;1670591;85;21092;-72
2021/07/22 06:49:21;;;;;;;4.17;2.10;;;;;;;20.16;65.49;99256.35;1667011;85;20947;-71
2021/07/22 06:51:48;;;;;;;4.87;2.30;;;;;;;20.23;63.98;99259.75;1663270;85;21029;-74
2021/07/22 06:54:15;;;;;;;5.12;2.12;;;;;;;20.27;62.82;99254.41;1661556;84;21141;-73
2021/07/22 06:56:42;;;;;;;8.98;2.77;;;;;;;20.34;62.93;99264.22;1660076;85;21962;-74
2021/07/22 06:59:08;;;;;;;6.92;2.65;;;;;;;20.41;62.52;99260.71;1638020;86;20976;-73
2021/07/22 07:01:36;;;;;;;7.83;2.70;;;;;;;20.44;62.50;99269.69;1667283;85;21521;-74
2021/07/22 07:04:05;;;;;;;5.80;2.60;;;;;;;20.49;64.37;99276.30;1666255;85;21031;-76
2021/07/22 07:06:34;;;;;;;6.65;2.65;;;;;;;20.52;62.77;99264.38;1667748;85;21516;-76
2021/07/22 07:09:03;;;;;;;7.15;2.40;;;;;;;20.57;62.21;99268.19;1668713;84;21021;-76
2021/07/22 07:11:30;;;;;;;5.53;2.50;;;;;;;20.59;62.86;99265.81;1662321;84;20998;-75
2021/07/22 07:13:58;;;;;;;10.88;2.87;;;;;;;20.57;60.89;99266.79;1666844;85;21517;-75
2021/07/22 07:16:24;;;;;;;9.35;2.50;;;;;;;20.59;62.26;99268.59;1671151;85;21045;-74
2021/07/22 07:18:50;;;;;;;9.70;2.70;;;;;;;20.64;62.07;99268.83;1663734;85;21033;-75
2021/07/22 07:21:17;;;;;;;5.25;2.90;;;;;;;20.69;60.31;99267.06;1666438;85;21522;-76
2021/07/22 07:23:43;;;;;;;4.65;2.60;;;;;;;20.68;61.20;99264.06;1668201;85;21018;-72
2021/07/22 07:26:10;;;;;;;4.45;2.60;;;;;;;20.74;62.91;99263.30;1658076;86;21581;-73
2021/07/22 07:28:37;;;;;;;7.35;2.65;;;;;;;20.85;63.53;99277.28;1670908;85;20910;-73
2021/07/22 07:31:04;;;;;;;4.83;2.62;;;;;;;20.98;63.14;99267.97;1670530;85;20997;-73
2021/07/22 07:33:30;;;;;;;7.90;2.85;;;;;;;21.10;61.68;99271.81;1664196;85;21533;-73
2021/07/22 07:35:58;;;;;;;4.45;2.40;;;;;;;21.19;62.41;99274.24;1668680;85;21406;-72
2021/07/22 07:38:25;;;;;;;10.93;3.10;;;;;;;21.27;62.24;99275.89;1668203;85;21016;-73
2021/07/22 07:40:52;;;;;;;8.43;2.60;;;;;;;21.32;60.00;99277.70;1667266;85;21112;-72
2021/07/22 07:43:20;;;;;;;6.37;2.65;;;;;;;21.39;61.52;99276.91;1665242;85;22405;-72
2021/07/22 07:45:46;;;;;;;10.60;2.65;;;;;;;21.54;61.31;99285.52;1666572;85;21179;-73
2021/07/22 07:48:13;;;;;;;5.53;2.25;;;;;;;21.73;61.36;99281.57;1629688;86;21073;-73
2021/07/22 07:50:40;;;;;;;9.30;2.58;;;;;;;21.89;59.83;99275.61;1676828;85;21131;-72
2021/07/22 07:53:19;;;;;;;8.73;2.70;;;;;;;22.02;57.01;99279.01;1690176;85;21021;-73
2021/07/22 07:55:47;;;;;;;4.45;2.58;;;;;;;22.06;58.25;99278.41;1689793;85;20909;-73
2021/07/22 07:58:14;;;;;;;5.67;2.40;;;;;;;22.13;57.75;99277.61;1687139;85;21132;-73
2021/07/22 08:00:40;;;;;;;4.92;1.98;;;;;;;22.20;57.31;99279.61;1684079;85;21024;-72
2021/07/22 08:03:19;;;;;;;4.75;2.70;;;;;;;22.25;56.63;99276.41;1671778;85;20974;-73
2021/07/22 08:05:50;;;;;;;5.75;2.47;;;;;;;22.28;57.86;99275.61;1670430;85;21041;-73
2021/07/22 08:08:17;;;;;;;11.20;2.60;;;;;;;22.35;57.36;99274.20;1668881;84;21081;-72
2021/07/22 08:10:43;;;;;;;6.42;3.00;;;;;;;22.47;59.67;99277.98;1676342;85;21509;-72
2021/07/22 08:13:10;;;;;;;8.88;2.30;;;;;;;22.62;59.74;99276.73;1689976;85;21032;-72
2021/07/22 08:15:41;;;;;;;7.37;2.80;;;;;;;22.81;57.32;99276.13;1677077;85;21056;-72
2021/07/22 08:18:08;;;;;;;5.72;3.02;;;;;;;22.99;58.57;99276.26;1684727;85;20946;-73
2021/07/22 08:20:34;;;;;;;4.90;2.33;;;;;;;23.31;58.14;99267.69;1677698;85;21118;-73
2021/07/22 08:23:01;;;;;;;4.50;2.00;;;;;;;23.74;56.27;99277.85;1678259;85;21126;-72
2021/07/22 08:25:27;;;;;;;6.60;2.00;;;;;;;24.10;56.23;99277.78;1670258;85;21018;-72
2021/07/22 08:27:54;;;;;;;14.35;2.20;;;;;;;24.35;54.60;99278.38;1682059;85;20985;-72
2021/07/22 08:30:21;;;;;;;9.13;2.15;;;;;;;24.51;53.76;99279.83;1669477;85;21025;-72
2021/07/22 08:32:47;;;;;;;5.47;2.25;;;;;;;24.71;53.33;99278.02;1671772;85;21434;-72
2021/07/22 08:35:14;;;;;;;5.75;2.33;;;;;;;24.92;51.00;99279.16;1687020;85;21518;-72
2021/07/22 08:37:41;;;;;;;5.60;2.40;;;;;;;25.08;52.74;99275.00;1687027;85;20973;-72
2021/07/22 08:40:11;;;;;;;9.58;2.60;;;;;;;25.33;52.99;99275.48;1678992;85;20914;-73
2021/07/22 08:42:40;;;;;;;13.53;3.92;;;;;;;25.42;50.08;99277.14;1685131;85;21037;-72
2021/07/22 08:45:08;;;;;;;8.43;2.75;;;;;;;25.39;48.46;99268.17;1673853;85;20950;-73
2021/07/22 08:47:35;;;;;;;7.62;2.92;;;;;;;25.46;49.92;99270.06;1686374;85;21725;-73
2021/07/22 08:50:03;;;;;;;9.85;2.10;;;;;;;25.61;49.25;99266.63;1670343;85;20906;-73
2021/07/22 08:52:29;;;;;;;6.20;2.30;;;;;;;25.45;49.45;99266.45;1671126;85;21562;-73
2021/07/22 08:54:56;;;;;;;7.25;2.00;;;;;;;25.18;49.88;99267.84;1688603;85;21460;-72
2021/07/22 08:57:28;;;;;;;7.95;1.92;;;;;;;25.01;50.92;99271.06;1664744;85;21528;-73
2021/07/22 08:59:54;;;;;;;5.10;1.92;;;;;;;25.04;49.58;99277.05;1667864;85;21084;-73
2021/07/22 09:02:21;;;;;;;5.05;2.10;;;;;;;25.04;49.86;99265.82;1669389;85;20961;-72
2021/07/22 09:04:53;;;;;;;6.17;2.10;;;;;;;25.03;50.59;99271.25;1673923;85;21309;-73
2021/07/22 09:07:20;;;;;;;4.97;1.72;;;;;;;25.07;50.46;99277.02;1681333;84;21081;-72
2021/07/22 09:10:12;;;;;;;10.68;2.15;;;;;;;24.94;49.47;99282.95;1676468;84;20921;-73
2021/07/22 09:12:51;;;;;;;6.62;2.12;;;;;;;24.84;49.54;99278.28;1674935;85;20965;-72
2021/07/22 09:15:39;;;;;;;3.50;1.67;;;;;;;24.94;51.49;99275.33;1669506;85;20977;-72
2021/07/22 09:18:31;;;;;;;5.03;2.10;;;;;;;25.11;51.60;99275.56;1688477;84;20949;-73
2021/07/22 09:20:56;;;;;;;6.28;1.92;;;;;;;25.44;49.14;99276.10;1683618;84;20981;-72
2021/07/22 09:23:25;;;;;;;4.03;2.20;;;;;;;25.79;49.48;99267.00;1671293;85;20952;-70
2021/07/22 09:25:54;;;;;;;13.98;3.92;;;;;;;25.93;48.73;99272.41;1677532;85;21146;-70
2021/07/22 09:28:23;;;;;;;4.10;2.12;;;;;;;26.06;49.63;99276.19;1681724;85;21551;-71
2021/07/22 09:31:04;;;;;;;4.80;2.20;;;;;;;26.14;48.29;99280.47;1677807;83;21061;-70
2021/07/22 09:33:44;;;;;;;7.75;2.00;;;;;;;26.04;47.37;99277.83;1677715;85;21045;-71
2021/07/22 09:36:25;;;;;;;3.40;1.80;;;;;;;26.15;48.46;99277.84;1673583;85;21127;-71
2021/07/22 09:38:52;;;;;;;6.20;2.10;;;;;;;26.35;47.16;99275.13;1678407;85;21096;-71
2021/07/22 09:41:23;;;;;;;3.87;2.00;;;;;;;26.50;47.40;99271.45;1689797;85;20913;-72
2021/07/22 09:43:49;;;;;;;2.97;2.20;;;;;;;26.43;46.44;99270.97;1664861;85;21702;-72
2021/07/22 09:46:16;;;;;;;8.10;2.52;;;;;;;26.10;45.92;99277.53;1687859;85;21045;-71
2021/07/22 09:49:08;;;;;;;4.00;2.17;;;;;;;25.51;46.75;99277.41;1670335;85;20962;-71
2021/07/22 09:51:36;;;;;;;3.25;2.15;;;;;;;25.32;47.65;99275.30;1680514;85;21169;-71
2021/07/22 09:54:08;;;;;;;2.60;2.02;;;;;;;25.18;50.69;99284.70;1688402;85;20918;-71
2021/07/22 09:56:38;;;;;;;3.58;2.02;;;;;;;25.17;48.53;99283.11;1688130;84;20953;-71
2021/07/22 09:59:04;;;;;;;4.35;1.60;;;;;;;25.08;49.06;99281.41;1676375;85;20978;-71
2021/07/22 10:01:33;;;;;;;4.60;1.70;;;;;;;25.29;50.18;99282.55;1680528;85;21504;-71
2021/07/22 10:04:00;;;;;;;6.97;2.02;;;;;;;25.36;48.89;99269.02;1665794;84;21618;-71
2021/07/22 10:06:28;;;;;;;5.08;2.25;;;;;;;25.33;47.89;99272.67;1669985;85;20961;-72
2021/07/22 10:08:55;;;;;;;4.62;1.95;;;;;;;25.34;48.66;99275.06;1683970;83;22253;-71
2021/07/22 10:11:21;;;;;;;5.28;2.00;;;;;;;25.76;47.82;99266.45;1667817;85;21080;-71
2021/07/22 10:13:48;;;;;;;8.23;2.35;;;;;;;25.87;46.38;99274.91;1671370;85;21508;-71
2021/07/22 10:16:19;;;;;;;2.47;1.75;;;;;;;25.70;46.76;99275.17;1682371;84;21153;-72
2021/07/22 10:18:47;;;;;;;3.05;1.80;;;;;;;25.42;47.05;99267.94;1686227;84;20909;-73
2021/07/22 10:21:14;;;;;;;5.67;2.17;;;;;;;25.03;48.11;99275.46;1671006;85;21126;-73
2021/07/22 10:23:42;;;;;;;5.72;2.47;;;;;;;24.69;48.31;99284.05;1661235;85;21053;-72
2021/07/22 10:26:09;;;;;;;5.75;2.20;;;;;;;24.77;49.71;99283.37;1664111;85;21028;-73
2021/07/22 10:28:35;;;;;;;11.05;2.80;;;;;;;25.11;49.45;99269.95;1663044;85;21193;-73
2021/07/22 10:31:03;;;;;;;7.08;2.37;;;;;;;25.76;48.36;99266.45;1678576;85;21535;-72
2021/07/22 10:33:29;;;;;;;5.15;2.25;;;;;;;26.42;46.43;99263.75;1664031;85;21075;-73
2021/07/22 10:35:56;;;;;;;5.30;2.05;;;;;;;26.82;44.91;99267.39;1666245;85;21166;-73
2021/07/22 10:38:27;;;;;;;14.93;5.05;;;;;;;26.95;44.94;99272.56;1657479;85;21044;-72
2021/07/22 10:41:08;;;;;;;3.65;2.20;;;;;;;27.12;44.49;99263.60;1885539;75;22455;-73
2021/07/22 10:43:43;;;;;;;3.50;2.12;;;;;;;27.29;42.55;99267.24;1860754;77;20918;-72
2021/07/22 10:46:22;;;;;;;4.78;2.12;;;;;;;27.46;42.27;99263.86;1860725;77;21127;-72
2021/07/22 10:48:47;;;;;;;3.83;2.02;;;;;;;27.61;40.59;99256.70;1858713;77;21549;-72
2021/07/22 10:51:18;;;;;;;3.20;1.60;;;;;;;27.88;41.11;99261.47;1860832;77;20914;-72
2021/07/22 10:53:54;;;;;;;4.90;2.00;;;;;;;28.03;40.74;99256.27;1861045;77;20946;-71
2021/07/22 10:56:45;;;;;;;5.28;2.40;;;;;;;28.01;36.41;99262.18;1861713;77;20859;-70
2021/07/22 10:59:11;;;;;;;10.98;2.58;;;;;;;28.02;37.48;99260.33;1860904;77;21047;-72
2021/07/22 11:01:48;;;;;;;3.25;1.57;;;;;;;28.16;36.00;99271.27;1855447;76;21619;-73
2021/07/22 11:04:38;;;;;;;5.37;2.27;;;;;;;28.12;36.01;99262.09;1860668;77;20919;-72
2021/07/22 11:07:07;;;;;;;7.37;2.17;;;;;;;28.04;39.12;99264.91;1860635;77;21021;-71
2021/07/22 11:09:46;;;;;;;9.30;2.83;;;;;;;28.19;39.25;99263.33;1856596;77;21019;-72
2021/07/22 11:12:44;;;;;;;5.10;2.08;;;;;;;28.23;38.66;99258.42;1830314;77;20972;-72
2021/07/22 11:15:37;;;;;;;3.33;1.80;;;;;;;28.36;37.58;99257.67;1823852;77;20881;-70
2021/07/22 11:18:52;;;;;;;3.30;1.90;;;;;;;28.63;37.63;99262.39;1853732;77;20914;-69
2021/07/22 11:21:30;;;;;;;2.62;1.40;;;;;;;28.88;37.08;99272.38;1853866;77;20964;-71
2021/07/22 11:24:22;;;;;;;3.33;1.70;;;;;;;29.07;36.01;99272.67;1832994;77;21015;-72
2021/07/22 11:26:52;;;;;;;5.70;2.20;;;;;;;29.01;34.09;99251.86;1849319;77;22232;-74
2021/07/22 11:29:21;;;;;;;4.33;1.40;;;;;;;29.08;34.42;99262.95;1819728;78;20881;-73
2021/07/22 11:31:55;;;;;;;2.98;1.75;;;;;;;29.25;35.31;99258.20;1852753;77;20873;-72
2021/07/22 11:34:30;;;;;;;4.72;2.17;;;;;;;29.32;33.98;99258.61;1852696;77;20959;-71
2021/07/22 11:36:58;;;;;;;2.85;1.65;;;;;;;29.05;34.05;99267.47;1853755;77;21427;-71
2021/07/22 11:39:41;;;;;;;2.27;1.60;;;;;;;28.73;35.76;99264.75;1853203;77;21123;-71
2021/07/22 11:42:11;;;;;;;6.62;1.70;;;;;;;28.64;34.93;99261.15;1853682;77;21495;-72
2021/07/22 11:44:38;;;;;;;3.47;1.90;;;;;;;28.62;36.17;99257.19;1853390;77;20882;-72